Time;durP1;ratioP1;P1;durP2;ratioP2;P2;SDS_P1;SDS_P2;PMS_P1;PMS_P2;Temp;Humidity;BMP_temperature;BMP_pressure;BME280_temperature;BME280_humidity;BME280_pressure;Samples;Min_cycle;Max_cycle;Signal;HPM_P1;HPM_P2
2023/12/03 00:01:56;;;;;;;3.97;2.10;;;-0.50;99.90;;;;;;5113886;28;20438;-52
2023/12/03 00:04:23;;;;;;;3.38;1.80;;;-0.60;99.90;;;;;;5113691;28;20778;-54
2023/12/03 00:06:50;;;;;;;2.72;1.40;;;-0.80;99.90;;;;;;5110885;28;20759;-52
2023/12/03 00:09:19;;;;;;;3.85;1.50;;;-0.70;99.90;;;;;;5113921;28;20427;-54
2023/12/03 00:11:46;;;;;;;4.28;1.50;;;-0.80;99.90;;;;;;5112715;28;20424;-55
2023/12/03 00:14:13;;;;;;;4.07;1.50;;;-0.90;99.90;;;;;;5113333;28;20424;-54
2023/12/03 00:16:40;;;;;;;3.47;1.27;;;-0.80;99.90;;;;;;5112392;28;20420;-55
2023/12/03 00:19:07;;;;;;;3.30;1.30;;;-1.00;99.90;;;;;;5112998;28;20420;-52
2023/12/03 00:21:34;;;;;;;5.15;2.03;;;-0.90;99.90;;;;;;5112515;28;20428;-51
2023/12/03 00:24:01;;;;;;;3.60;1.60;;;-0.70;99.90;;;;;;5113858;28;20830;-53
2023/12/03 00:26:30;;;;;;;2.90;1.40;;;-1.00;99.90;;;;;;5113133;28;20432;-53
2023/12/03 00:28:57;;;;;;;4.10;1.73;;;-0.80;99.90;;;;;;5113863;28;20866;-55
2023/12/03 00:31:24;;;;;;;3.73;1.40;;;-0.80;99.90;;;;;;5113672;28;20800;-54
2023/12/03 00:33:51;;;;;;;2.80;1.30;;;-1.00;99.90;;;;;;5113423;28;20430;-55
2023/12/03 00:36:18;;;;;;;4.40;1.40;;;-1.10;99.90;;;;;;5112381;28;20854;-54
2023/12/03 00:38:45;;;;;;;3.20;1.33;;;-1.00;99.90;;;;;;5112856;28;20419;-49
2023/12/03 00:41:12;;;;;;;3.08;1.50;;;-0.80;99.90;;;;;;5113035;28;20412;-51
2023/12/03 00:43:40;;;;;;;3.80;1.60;;;-0.80;99.90;;;;;;5111464;28;20850;-53
2023/12/03 00:46:08;;;;;;;2.30;1.30;;;-0.60;99.90;;;;;;5111638;28;20842;-53
2023/12/03 00:48:35;;;;;;;3.85;1.77;;;-0.60;99.90;;;;;;5110681;28;20420;-51
2023/12/03 00:51:02;;;;;;;4.80;1.48;;;-0.70;99.90;;;;;;5111474;28;20423;-50
2023/12/03 00:53:29;;;;;;;3.60;1.40;;;-0.60;99.90;;;;;;5110795;28;20420;-54
2023/12/03 00:55:56;;;;;;;3.53;1.20;;;-0.70;99.90;;;;;;5110496;28;20425;-53
2023/12/03 00:58:23;;;;;;;3.70;1.60;;;-0.70;99.90;;;;;;5111980;28;20416;-53
2023/12/03 01:00:52;;;;;;;3.30;1.30;;;-0.70;99.90;;;;;;5112880;28;20885;-54
2023/12/03 01:03:19;;;;;;;3.03;1.40;;;-0.90;99.90;;;;;;5114085;28;20443;-53
2023/12/03 01:05:46;;;;;;;3.55;1.10;;;-1.10;99.90;;;;;;5113662;28;20435;-55
2023/12/03 01:08:13;;;;;;;3.20;1.40;;;-1.20;99.90;;;;;;5112647;28;20431;-55
2023/12/03 01:10:43;;;;;;;2.80;1.40;;;-1.30;99.90;;;;;;5113427;28;20416;-51
2023/12/03 01:13:10;;;;;;;3.63;1.60;;;-1.40;99.90;;;;;;5113378;28;20422;-55
2023/12/03 01:15:37;;;;;;;3.08;1.30;;;-1.60;99.90;;;;;;5112571;28;20424;-56
2023/12/03 01:18:06;;;;;;;3.97;1.45;;;-1.60;99.90;;;;;;5113331;28;20427;-56
2023/12/03 01:20:33;;;;;;;2.80;1.20;;;-1.60;99.90;;;;;;5113212;28;20481;-52
2023/12/03 01:23:01;;;;;;;3.67;1.50;;;-1.60;99.90;;;;;;5114122;28;20423;-50
2023/12/03 01:25:28;;;;;;;5.25;1.70;;;-1.60;99.90;;;;;;5116995;28;20428;-54
2023/12/03 01:27:55;;;;;;;3.53;1.55;;;-1.40;99.90;;;;;;5117322;28;20442;-56
2023/12/03 01:30:22;;;;;;;3.60;1.50;;;-1.10;99.90;;;;;;5116261;28;20427;-53
2023/12/03 01:32:49;;;;;;;2.60;1.30;;;-1.20;99.90;;;;;;5117608;28;20857;-55
2023/12/03 01:35:18;;;;;;;2.50;1.30;;;-1.10;99.90;;;;;;5115627;28;20430;-53
2023/12/03 01:37:46;;;;;;;3.05;1.42;;;-1.10;99.90;;;;;;5116215;28;20839;-54
2023/12/03 01:40:13;;;;;;;3.05;1.40;;;-1.00;99.90;;;;;;5116844;28;20412;-55
2023/12/03 01:42:40;;;;;;;2.80;1.60;;;-1.10;99.90;;;;;;5117529;28;20424;-50
2023/12/03 01:45:08;;;;;;;2.58;1.10;;;-1.00;99.90;;;;;;5115741;28;20416;-54
2023/12/03 01:47:36;;;;;;;2.70;1.05;;;-1.10;99.90;;;;;;5114702;28;20420;-55
2023/12/03 01:50:08;;;;;;;2.25;1.17;;;-1.20;99.90;;;;;;5116364;28;20420;-53
2023/12/03 01:52:37;;;;;;;3.85;1.60;;;-1.20;99.90;;;;;;5116572;28;20427;-55
2023/12/03 01:55:05;;;;;;;3.25;1.50;;;-1.30;99.90;;;;;;5115846;28;20409;-55
2023/12/03 01:57:32;;;;;;;3.00;1.20;;;-1.40;99.90;;;;;;5114170;28;20527;-55
2023/12/03 01:59:59;;;;;;;2.70;1.30;;;-1.40;99.90;;;;;;5114762;28;20473;-52
2023/12/03 02:02:27;;;;;;;3.28;1.20;;;-1.50;99.90;;;;;;5115661;28;20420;-53
2023/12/03 02:04:54;;;;;;;4.03;1.20;;;-1.60;99.90;;;;;;5116130;28;20496;-53
2023/12/03 02:07:21;;;;;;;3.97;1.70;;;-1.60;99.90;;;;;;5114587;28;20428;-52
2023/12/03 02:09:50;;;;;;;4.22;1.58;;;-1.50;99.90;;;;;;5114644;28;20423;-54
2023/12/03 02:12:17;;;;;;;3.10;1.40;;;-1.60;99.90;;;;;;5114875;28;20428;-54
2023/12/03 02:14:44;;;;;;;2.50;1.30;;;-1.50;99.90;;;;;;5116076;28;20427;-55
2023/12/03 02:17:11;;;;;;;2.95;1.40;;;-1.50;99.90;;;;;;5115422;28;20420;-53
2023/12/03 02:19:38;;;;;;;4.45;1.15;;;-1.50;99.90;;;;;;5115907;28;20416;-52
2023/12/03 02:22:05;;;;;;;3.93;1.50;;;-1.50;99.90;;;;;;5116108;28;20715;-55
2023/12/03 02:24:35;;;;;;;4.15;1.20;;;-1.60;99.90;;;;;;5115067;28;20797;-54
2023/12/03 02:27:02;;;;;;;2.70;1.40;;;-1.50;99.90;;;;;;5115664;28;20432;-53
2023/12/03 02:29:29;;;;;;;4.25;1.17;;;-1.50;99.90;;;;;;5116126;28;20507;-54
2023/12/03 02:31:57;;;;;;;2.53;1.10;;;-1.50;99.90;;;;;;5115966;28;20516;-51
2023/12/03 02:34:24;;;;;;;3.20;1.20;;;-1.50;99.90;;;;;;5115137;28;20408;-52
2023/12/03 02:36:51;;;;;;;3.47;1.42;;;-1.70;99.90;;;;;;5115058;28;20597;-53
2023/12/03 02:39:18;;;;;;;2.70;1.30;;;-1.70;99.90;;;;;;5115525;28;20420;-56
2023/12/03 02:41:46;;;;;;;5.30;1.30;;;-1.70;99.90;;;;;;5115135;28;20835;-51
2023/12/03 02:44:14;;;;;;;4.45;1.60;;;-1.70;99.90;;;;;;5116172;28;20424;-50
2023/12/03 02:46:41;;;;;;;4.00;1.40;;;-1.50;99.90;;;;;;5115850;28;20424;-55
2023/12/03 02:49:08;;;;;;;3.17;1.30;;;-1.60;99.90;;;;;;5114264;28;20412;-52
2023/12/03 02:51:35;;;;;;;2.95;1.10;;;-1.60;99.90;;;;;;5114350;28;20454;-51
2023/12/03 02:54:02;;;;;;;3.33;1.17;;;-1.70;99.90;;;;;;5114275;28;20735;-51
2023/12/03 02:56:29;;;;;;;2.83;1.30;;;-1.70;99.90;;;;;;5115618;28;20834;-53
2023/12/03 02:58:57;;;;;;;3.65;1.33;;;-1.70;99.90;;;;;;5114619;28;20440;-54
2023/12/03 03:01:24;;;;;;;3.72;1.20;;;-1.60;99.90;;;;;;5115279;28;20412;-55
2023/12/03 03:03:51;;;;;;;3.60;1.30;;;-1.60;99.90;;;;;;5114520;28;20843;-55
2023/12/03 03:06:18;;;;;;;2.90;1.40;;;-1.60;99.90;;;;;;5113748;28;20522;-54
2023/12/03 03:08:45;;;;;;;2.80;1.20;;;-1.50;99.90;;;;;;5111882;28;20866;-55
2023/12/03 03:11:12;;;;;;;3.33;1.40;;;-1.50;99.90;;;;;;5114040;28;20412;-55
2023/12/03 03:13:39;;;;;;;4.65;1.60;;;-1.50;99.90;;;;;;5113270;28;21061;-50
2023/12/03 03:16:09;;;;;;;2.85;1.17;;;-1.50;99.90;;;;;;5110925;28;20431;-53
2023/12/03 03:18:36;;;;;;;4.68;1.30;;;-1.40;99.90;;;;;;5114154;28;20420;-52
2023/12/03 03:21:03;;;;;;;3.08;1.20;;;-1.40;99.90;;;;;;5112809;28;20416;-54
2023/12/03 03:23:30;;;;;;;4.13;1.20;;;-1.50;99.90;;;;;;5113293;28;20416;-56
2023/12/03 03:25:57;;;;;;;3.17;1.30;;;-1.60;99.90;;;;;;5113364;28;20428;-50
2023/12/03 03:28:27;;;;;;;3.00;1.20;;;-1.60;99.90;;;;;;5113221;28;20416;-54
2023/12/03 03:30:54;;;;;;;3.78;1.50;;;-1.70;99.90;;;;;;5112828;28;20407;-50
2023/12/03 03:33:23;;;;;;;4.20;1.20;;;-1.70;99.90;;;;;;5113954;28;20920;-52
2023/12/03 03:35:50;;;;;;;3.83;1.40;;;-1.60;99.90;;;;;;5113333;28;20438;-51
2023/12/03 03:38:17;;;;;;;3.80;1.20;;;-1.50;99.90;;;;;;5114010;28;20420;-52
2023/12/03 03:40:44;;;;;;;3.20;1.40;;;-1.50;99.90;;;;;;5114347;28;20423;-55
2023/12/03 03:43:11;;;;;;;3.13;1.60;;;-1.40;99.90;;;;;;5114050;28;20412;-54
2023/12/03 03:45:39;;;;;;;2.92;1.30;;;-1.40;99.90;;;;;;5113101;28;20696;-54
2023/12/03 03:48:06;;;;;;;2.20;1.17;;;-1.40;99.90;;;;;;5110579;28;20857;-54
2023/12/03 03:50:35;;;;;;;2.60;1.00;;;-1.40;99.90;;;;;;5112340;28;20431;-52
2023/12/03 03:53:02;;;;;;;2.95;1.27;;;-1.50;99.90;;;;;;5112683;28;20424;-52
2023/12/03 03:55:29;;;;;;;3.28;1.20;;;-1.60;99.90;;;;;;5112915;28;20987;-54
2023/12/03 03:57:56;;;;;;;3.25;1.02;;;-1.80;99.90;;;;;;5112933;28;20409;-53
2023/12/03 04:00:23;;;;;;;3.95;1.20;;;-1.70;99.90;;;;;;5112474;28;20575;-53
2023/12/03 04:02:51;;;;;;;2.67;1.30;;;-1.70;99.90;;;;;;5112370;28;20432;-53
2023/12/03 04:05:18;;;;;;;3.17;1.07;;;-1.60;99.90;;;;;;5112915;28;20428;-53
2023/12/03 04:07:47;;;;;;;1.85;1.10;;;-1.60;99.90;;;;;;5110275;28;20427;-54
2023/12/03 04:10:14;;;;;;;3.35;1.23;;;-1.70;99.90;;;;;;5112944;28;20419;-49
2023/12/03 04:12:41;;;;;;;3.08;1.10;;;-1.80;99.90;;;;;;5113324;28;20428;-52
2023/12/03 04:15:10;;;;;;;2.90;1.10;;;-1.80;99.90;;;;;;5113751;28;20416;-51
2023/12/03 04:17:37;;;;;;;2.80;1.10;;;-1.80;99.90;;;;;;5113538;28;20420;-54
2023/12/03 04:20:04;;;;;;;4.22;1.40;;;-1.80;99.90;;;;;;5113110;28;20819;-52
2023/12/03 04:22:31;;;;;;;4.30;1.50;;;-2.00;99.90;;;;;;5113434;28;20408;-51
2023/12/03 04:25:00;;;;;;;4.72;1.50;;;-2.00;99.90;;;;;;5113479;28;20412;-54
2023/12/03 04:27:27;;;;;;;3.60;1.33;;;-2.10;99.90;;;;;;5113967;28;20848;-55
2023/12/03 04:29:54;;;;;;;2.55;1.20;;;-2.10;99.90;;;;;;5113453;28;20423;-52
2023/12/03 04:32:21;;;;;;;3.45;1.25;;;-2.00;99.90;;;;;;5112650;28;20463;-54
2023/12/03 04:34:48;;;;;;;3.20;1.30;;;-1.90;99.90;;;;;;5113507;28;20416;-54
2023/12/03 04:37:15;;;;;;;4.07;1.55;;;-1.90;99.90;;;;;;5113939;28;20470;-53
2023/12/03 04:39:44;;;;;;;3.35;1.30;;;-1.90;99.90;;;;;;5112542;28;20425;-53
2023/12/03 04:42:12;;;;;;;5.18;1.30;;;-1.80;99.90;;;;;;5112593;28;20421;-54
2023/12/03 04:44:39;;;;;;;2.22;1.13;;;-1.60;99.90;;;;;;5112588;28;20840;-50
2023/12/03 04:47:06;;;;;;;3.25;1.30;;;-1.50;99.90;;;;;;5112307;28;20459;-55
2023/12/03 04:49:34;;;;;;;5.25;1.30;;;-1.60;99.90;;;;;;5112114;28;20420;-54
2023/12/03 04:52:01;;;;;;;4.38;1.45;;;-1.60;99.90;;;;;;5108481;28;20423;-53
2023/12/03 04:54:28;;;;;;;3.88;1.35;;;-1.50;99.90;;;;;;5112639;28;20427;-51
2023/12/03 04:56:57;;;;;;;3.78;1.60;;;-1.60;99.90;;;;;;5112834;28;20719;-54
2023/12/03 04:59:25;;;;;;;3.80;1.40;;;-1.80;99.90;;;;;;5116097;28;20881;-54
2023/12/03 05:01:52;;;;;;;4.38;1.60;;;-1.90;99.90;;;;;;5117216;28;20509;-53
2023/12/03 05:04:19;;;;;;;3.35;1.42;;;-2.00;99.90;;;;;;5117383;28;20419;-55
2023/12/03 05:06:47;;;;;;;4.10;1.50;;;-2.10;99.90;;;;;;5117026;28;20427;-53
2023/12/03 05:09:15;;;;;;;3.95;1.88;;;-2.00;99.90;;;;;;5115989;28;20420;-55
2023/12/03 05:11:44;;;;;;;4.63;1.83;;;-1.90;99.90;;;;;;5112969;28;20420;-53
2023/12/03 05:14:11;;;;;;;3.78;1.45;;;-1.60;99.90;;;;;;5116401;28;20520;-53
2023/12/03 05:16:39;;;;;;;4.50;1.70;;;-1.50;99.90;;;;;;5115176;28;20408;-55
2023/12/03 05:19:06;;;;;;;4.88;1.38;;;-1.40;99.90;;;;;;5115416;28;20420;-53
2023/12/03 05:21:33;;;;;;;4.07;1.30;;;-1.60;99.90;;;;;;5115253;28;20977;-52
2023/12/03 05:24:00;;;;;;;3.55;1.40;;;-1.90;99.90;;;;;;5115269;28;20428;-50
2023/12/03 05:26:27;;;;;;;4.30;1.50;;;-1.90;99.90;;;;;;5115174;28;20489;-53
2023/12/03 05:28:55;;;;;;;4.15;1.75;;;-2.00;99.90;;;;;;5116319;28;20447;-50
2023/12/03 05:31:22;;;;;;;3.70;1.40;;;-2.10;99.90;;;;;;5117364;28;20723;-53
2023/12/03 05:33:50;;;;;;;3.40;1.50;;;-2.10;99.90;;;;;;5117365;28;20839;-52
2023/12/03 05:36:22;;;;;;;5.22;2.05;;;-2.30;99.90;;;;;;5117097;28;20424;-50
2023/12/03 05:38:51;;;;;;;3.80;1.42;;;-2.40;99.90;;;;;;5117588;28;20428;-54
2023/12/03 05:41:18;;;;;;;4.25;1.60;;;-2.30;99.90;;;;;;5117095;28;20703;-49
2023/12/03 05:43:45;;;;;;;5.53;1.70;;;-2.50;99.90;;;;;;5116340;28;20739;-53
2023/12/03 05:46:12;;;;;;;3.00;1.50;;;-2.50;99.90;;;;;;5116380;28;20416;-51
2023/12/03 05:48:39;;;;;;;4.10;1.52;;;-2.70;99.90;;;;;;5117316;28;20421;-52
2023/12/03 05:51:11;;;;;;;4.30;1.40;;;-2.80;99.90;;;;;;5116567;28;20420;-50
2023/12/03 05:53:38;;;;;;;4.20;1.40;;;-2.90;99.90;;;;;;5116553;28;20478;-50
2023/12/03 05:56:06;;;;;;;3.53;1.40;;;-2.90;99.90;;;;;;5116623;28;20963;-53
2023/12/03 05:58:33;;;;;;;3.95;1.50;;;-2.90;99.90;;;;;;5114796;28;20723;-55
2023/12/03 06:01:00;;;;;;;3.95;1.40;;;-2.90;99.90;;;;;;5115409;28;20835;-53
2023/12/03 06:03:27;;;;;;;3.25;1.40;;;-2.80;99.90;;;;;;5115871;28;20428;-53
2023/12/03 06:05:54;;;;;;;5.78;1.90;;;-2.80;99.90;;;;;;5115935;28;20434;-54
2023/12/03 06:08:24;;;;;;;2.80;1.30;;;-2.80;99.90;;;;;;5111965;28;20822;-49
2023/12/03 06:10:51;;;;;;;7.20;1.98;;;-2.80;99.90;;;;;;5113561;28;20827;-54
2023/12/03 06:13:18;;;;;;;4.47;1.95;;;-2.90;99.90;;;;;;5116025;28;20738;-55
2023/12/03 06:15:45;;;;;;;5.50;1.50;;;-2.80;99.90;;;;;;5115257;28;20798;-51
2023/12/03 06:18:12;;;;;;;3.65;1.42;;;-2.70;99.90;;;;;;5114832;28;20834;-55
2023/12/03 06:20:39;;;;;;;5.90;1.70;;;-2.70;99.90;;;;;;5114634;28;20450;-51
2023/12/03 06:23:06;;;;;;;4.07;1.87;;;-2.80;99.90;;;;;;5114986;28;20423;-55
2023/12/03 06:25:36;;;;;;;3.85;1.60;;;-2.80;99.90;;;;;;5115295;28;20861;-52
2023/12/03 06:28:03;;;;;;;5.07;1.65;;;-2.80;99.90;;;;;;5112408;28;20434;-52
2023/12/03 06:30:30;;;;;;;5.20;1.77;;;-2.80;99.90;;;;;;5114924;28;20933;-53
2023/12/03 06:32:57;;;;;;;4.97;1.30;;;-2.80;99.90;;;;;;5114186;28;20599;-52
2023/12/03 06:35:24;;;;;;;3.92;1.23;;;-2.70;99.90;;;;;;5114254;28;20430;-55
2023/12/03 06:37:51;;;;;;;6.53;1.88;;;-2.80;99.90;;;;;;5113947;28;20877;-55
2023/12/03 06:40:18;;;;;;;4.30;1.70;;;-2.80;99.90;;;;;;5114321;28;20417;-53
2023/12/03 06:42:50;;;;;;;4.93;1.92;;;-2.70;99.90;;;;;;5114232;28;20504;-53
2023/12/03 06:45:17;;;;;;;6.45;1.90;;;-2.50;99.90;;;;;;5114338;28;20416;-51
2023/12/03 06:47:44;;;;;;;4.10;1.90;;;-2.50;99.90;;;;;;5110894;28;20432;-50
2023/12/03 06:50:11;;;;;;;5.25;1.90;;;-2.50;99.90;;;;;;5114328;28;20435;-50
2023/12/03 06:52:38;;;;;;;5.95;1.98;;;-2.40;99.90;;;;;;5113221;28;20413;-50
2023/12/03 06:55:06;;;;;;;4.40;1.70;;;-2.30;99.90;;;;;;5113073;28;20412;-50
2023/12/03 06:57:33;;;;;;;5.22;1.60;;;-2.20;99.90;;;;;;5113737;28;20909;-54
2023/12/03 07:00:03;;;;;;;3.50;1.60;;;-2.20;99.90;;;;;;5113718;28;20447;-53
2023/12/03 07:02:30;;;;;;;4.00;2.10;;;-2.20;99.90;;;;;;5113321;28;20503;-50
2023/12/03 07:04:57;;;;;;;3.40;1.70;;;-2.30;99.90;;;;;;5111206;28;20871;-51
2023/12/03 07:07:25;;;;;;;5.78;2.10;;;-2.30;99.90;;;;;;5113093;28;20869;-50
2023/12/03 07:09:52;;;;;;;5.35;2.15;;;-2.30;99.90;;;;;;5112980;28;20420;-50
2023/12/03 07:12:19;;;;;;;4.57;1.80;;;-2.40;99.90;;;;;;5112904;28;20438;-49
2023/12/03 07:14:46;;;;;;;4.00;1.30;;;-2.50;99.90;;;;;;5114037;28;20412;-53
2023/12/03 07:17:15;;;;;;;3.20;2.10;;;-2.60;99.90;;;;;;5111361;28;20827;-55
2023/12/03 07:19:44;;;;;;;3.92;1.60;;;-2.80;99.90;;;;;;5113221;28;20715;-52
2023/12/03 07:22:12;;;;;;;4.93;1.95;;;-3.00;99.90;;;;;;5112987;28;20418;-52
2023/12/03 07:24:40;;;;;;;4.37;1.73;;;-3.10;99.90;;;;;;5113717;28;20890;-53
2023/12/03 07:27:08;;;;;;;6.05;2.05;;;-3.30;99.90;;;;;;5114723;28;20432;-49
2023/12/03 07:29:35;;;;;;;6.47;2.40;;;-3.40;99.90;;;;;;5113875;28;20517;-54
2023/12/03 07:32:03;;;;;;;5.70;1.90;;;-3.40;99.90;;;;;;5113810;28;20427;-51
2023/12/03 07:34:31;;;;;;;6.95;2.60;;;-3.40;99.90;;;;;;5114251;28;20419;-53
2023/12/03 07:36:58;;;;;;;5.35;1.80;;;-3.40;99.90;;;;;;5114080;28;20431;-53
2023/12/03 07:39:26;;;;;;;4.40;1.95;;;-3.40;99.90;;;;;;5113176;28;20423;-54
2023/12/03 07:41:54;;;;;;;5.07;1.92;;;-3.50;99.90;;;;;;5114161;28;20861;-52
2023/12/03 07:44:21;;;;;;;4.80;2.00;;;-3.50;99.90;;;;;;5111881;28;20430;-52
2023/12/03 07:46:49;;;;;;;6.00;2.10;;;-3.40;1.00;;;;;;5113144;28;20712;-52
2023/12/03 07:49:16;;;;;;;3.45;1.80;;;-3.40;1.00;;;;;;5112670;28;20423;-52
2023/12/03 07:51:47;;;;;;;6.88;2.40;;;-3.40;1.00;;;;;;5112055;28;20420;-50
2023/12/03 07:54:14;;;;;;;5.40;2.17;;;-3.30;1.00;;;;;;5112412;28;20427;-52
2023/12/03 07:56:42;;;;;;;5.80;2.10;;;-3.30;1.00;;;;;;5113756;28;20485;-53
2023/12/03 07:59:09;;;;;;;5.13;1.50;;;-3.20;1.00;;;;;;5113757;28;20736;-50
2023/12/03 08:01:36;;;;;;;4.40;1.80;;;-3.10;1.00;;;;;;5112980;28;20415;-53
2023/12/03 08:04:04;;;;;;;4.53;1.60;;;-3.00;1.00;;;;;;5113904;28;20416;-54
2023/12/03 08:06:31;;;;;;;5.95;1.92;;;-3.00;1.00;;;;;;5114144;28;20528;-50
2023/12/03 08:09:00;;;;;;;5.07;1.73;;;-3.00;1.00;;;;;;5114046;28;20858;-49
2023/12/03 08:11:27;;;;;;;4.38;1.85;;;-3.00;1.00;;;;;;5113364;28;20420;-54
2023/12/03 08:13:55;;;;;;;5.50;1.90;;;-3.00;1.00;;;;;;5112879;28;20823;-49
2023/12/03 08:16:22;;;;;;;4.87;2.00;;;-2.70;1.00;;;;;;5111430;28;20416;-52
2023/12/03 08:18:49;;;;;;;5.72;1.83;;;-2.70;1.00;;;;;;5125275;27;20414;-51
2023/12/03 08:21:16;;;;;;;6.68;2.50;;;-2.80;1.00;;;;;;5132456;27;20418;-55
2023/12/03 08:23:43;;;;;;;7.00;2.20;;;-2.90;1.00;;;;;;5118873;28;20855;-54
2023/12/03 08:26:12;;;;;;;5.50;2.72;;;-2.80;1.00;;;;;;5112716;28;20420;-51
2023/12/03 08:28:39;;;;;;;5.37;1.90;;;-2.90;1.00;;;;;;5112302;28;20427;-55
2023/12/03 08:31:07;;;;;;;5.63;2.00;;;-2.80;1.00;;;;;;5111580;28;20408;-53
2023/12/03 08:33:34;;;;;;;8.18;3.22;;;-2.60;1.00;;;;;;5114912;28;20788;-52
2023/12/03 08:36:01;;;;;;;4.20;2.10;;;-2.40;1.00;;;;;;5117693;28;20420;-54
2023/12/03 08:38:29;;;;;;;7.55;2.70;;;-2.50;1.00;;;;;;5118133;28;20411;-53
2023/12/03 08:40:56;;;;;;;4.95;1.90;;;-2.40;1.00;;;;;;5116983;28;20964;-52
2023/12/03 08:43:24;;;;;;;7.43;2.83;;;-2.40;1.00;;;;;;5116497;28;20830;-51
2023/12/03 08:45:51;;;;;;;5.50;2.33;;;-2.50;1.00;;;;;;5117630;28;20416;-50
2023/12/03 08:48:18;;;;;;;5.07;2.05;;;-2.60;1.00;;;;;;5116870;28;20420;-49
2023/12/03 08:50:45;;;;;;;6.30;2.85;;;-2.60;1.00;;;;;;5116495;28;20450;-51
2023/12/03 08:53:12;;;;;;;6.20;2.53;;;-2.60;1.00;;;;;;5115002;28;20431;-47
2023/12/03 08:55:39;;;;;;;8.00;2.25;;;-2.50;1.00;;;;;;5114773;28;20834;-52
2023/12/03 08:58:06;;;;;;;5.93;2.00;;;-2.30;1.00;;;;;;5115706;28;20404;-52
2023/12/03 09:00:35;;;;;;;5.95;2.20;;;-2.40;1.00;;;;;;5115703;28;20420;-52
2023/12/03 09:03:03;;;;;;;4.78;2.03;;;-2.40;1.00;;;;;;5116660;28;20861;-52
2023/12/03 09:05:30;;;;;;;6.47;2.53;;;-2.30;1.00;;;;;;5115602;28;20531;-53
2023/12/03 09:07:57;;;;;;;6.90;2.55;;;-2.40;1.00;;;;;;5114784;28;20428;-53
2023/12/03 09:10:24;;;;;;;5.20;2.50;;;-2.40;1.00;;;;;;5116071;28;20434;-50
2023/12/03 09:12:52;;;;;;;5.22;2.10;;;-2.40;1.00;;;;;;5116446;28;20427;-52
2023/12/03 09:15:19;;;;;;;6.72;2.20;;;-2.50;1.00;;;;;;5116374;28;20424;-51
2023/12/03 09:17:47;;;;;;;7.47;2.92;;;-2.50;1.00;;;;;;5116347;28;20412;-53
2023/12/03 09:20:14;;;;;;;5.80;2.40;;;-2.60;1.00;;;;;;5116007;28;20468;-53
2023/12/03 09:22:41;;;;;;;4.75;1.55;;;-2.50;1.00;;;;;;5116410;28;20521;-54
2023/12/03 09:25:09;;;;;;;6.82;2.20;;;-2.50;1.00;;;;;;5115510;28;20407;-51
2023/12/03 09:27:36;;;;;;;3.70;2.00;;;-2.40;1.00;;;;;;5116994;28;20728;-50
2023/12/03 09:30:04;;;;;;;6.93;2.63;;;-2.40;1.00;;;;;;5116154;28;20824;-51
2023/12/03 09:32:31;;;;;;;5.25;2.65;;;-2.30;1.00;;;;;;5114764;28;20515;-50
2023/12/03 09:34:59;;;;;;;6.80;2.30;;;-2.20;1.00;;;;;;5115661;28;20816;-50
2023/12/03 09:37:26;;;;;;;7.88;2.60;;;-2.20;1.00;;;;;;5116616;28;20419;-49
2023/12/03 09:39:54;;;;;;;5.03;2.13;;;-2.10;1.00;;;;;;5115810;28;20599;-51
2023/12/03 09:42:24;;;;;;;6.78;2.72;;;-2.00;1.00;;;;;;5116011;28;20428;-50
2023/12/03 09:45:03;;;;;;;4.20;2.40;;;-1.90;1.00;;;;;;5114889;28;20512;-53
2023/12/03 09:47:34;;;;;;;6.65;2.55;;;-1.80;1.00;;;;;;5115119;28;20431;-52
2023/12/03 09:50:04;;;;;;;6.85;2.95;;;-1.70;1.00;;;;;;5116114;28;20424;-52
2023/12/03 09:52:36;;;;;;;8.30;2.80;;;-1.60;1.00;;;;;;5114833;28;20412;-51
2023/12/03 09:55:04;;;;;;;7.20;2.55;;;-1.60;1.00;;;;;;5114626;28;20830;-52
2023/12/03 09:57:32;;;;;;;5.80;2.20;;;-1.60;1.00;;;;;;5114230;28;20486;-49
2023/12/03 10:00:02;;;;;;;6.93;2.80;;;-1.30;1.00;;;;;;5113236;28;20486;-49
2023/12/03 10:02:29;;;;;;;5.93;2.47;;;-1.00;99.90;;;;;;5112974;28;20469;-53
2023/12/03 10:04:57;;;;;;;6.18;2.15;;;-0.50;1.00;;;;;;5114012;28;20777;-52
2023/12/03 10:07:28;;;;;;;4.47;2.97;;;-0.50;99.90;;;;;;5114715;28;20824;-52
2023/12/03 10:09:58;;;;;;;6.57;2.90;;;-0.70;1.00;;;;;;5112819;28;20412;-52
2023/12/03 10:12:29;;;;;;;6.00;2.20;;;-1.00;99.90;;;;;;5115382;28;20424;-54
2023/12/03 10:14:58;;;;;;;7.95;3.42;;;-1.10;1.00;;;;;;5116261;28;20685;-52
2023/12/03 10:17:25;;;;;;;5.57;2.43;;;-1.10;99.90;;;;;;5115578;28;20509;-51
2023/12/03 10:19:52;;;;;;;5.38;2.40;;;-1.20;99.90;;;;;;5113087;28;20828;-52
2023/12/03 10:22:32;;;;;;;6.05;2.63;;;-1.20;99.90;;;;;;5112670;28;20420;-51
2023/12/03 10:24:59;;;;;;;4.87;2.33;;;-1.20;99.90;;;;;;5111908;28;20481;-53
2023/12/03 10:27:29;;;;;;;4.80;2.38;;;-1.20;1.00;;;;;;5112248;28;20420;-49
2023/12/03 10:29:56;;;;;;;5.10;2.30;;;-1.10;1.00;;;;;;5111350;28;20518;-49
2023/12/03 10:32:23;;;;;;;5.57;1.85;;;-1.00;99.90;;;;;;5111828;28;20792;-50
2023/12/03 10:34:51;;;;;;;5.50;1.88;;;-1.10;99.90;;;;;;5111781;28;20432;-49
2023/12/03 10:37:18;;;;;;;3.80;1.90;;;-1.00;99.90;;;;;;5112879;28;20789;-50
2023/12/03 10:39:48;;;;;;;6.47;2.33;;;-1.10;99.90;;;;;;5113497;28;20512;-54
2023/12/03 10:42:15;;;;;;;5.43;2.08;;;-1.00;99.90;;;;;;5113748;28;20421;-53
2023/12/03 10:44:42;;;;;;;5.10;2.00;;;-1.00;99.90;;;;;;5114638;28;20430;-53
2023/12/03 10:47:09;;;;;;;7.63;3.17;;;-1.00;99.90;;;;;;5115175;28;20982;-52
2023/12/03 10:49:37;;;;;;;4.90;2.17;;;-0.90;99.90;;;;;;5114983;28;20443;-51
2023/12/03 10:52:07;;;;;;;5.53;2.50;;;-0.80;99.90;;;;;;5115310;28;20408;-49
2023/12/03 10:54:34;;;;;;;6.68;2.60;;;-0.80;99.90;;;;;;5113668;28;20583;-52
2023/12/03 10:57:03;;;;;;;5.40;2.70;;;-0.70;99.90;;;;;;5113684;28;20416;-53
2023/12/03 10:59:32;;;;;;;6.57;2.27;;;-0.70;99.90;;;;;;5113316;28;20443;-51
2023/12/03 11:02:07;;;;;;;6.57;2.17;;;-0.60;67.70;;;;;;5113144;28;20804;-52
2023/12/03 11:04:39;;;;;;;6.00;2.90;;;-0.60;99.90;;;;;;5112993;28;20849;-53
2023/12/03 11:07:08;;;;;;;5.43;2.28;;;-0.60;99.90;;;;;;5111773;28;20862;-49
2023/12/03 11:09:37;;;;;;;6.22;2.60;;;-0.50;1.00;;;;;;5111481;28;20424;-52
2023/12/03 11:12:08;;;;;;;5.78;2.75;;;-0.50;1.00;;;;;;5112424;28;20481;-52
2023/12/03 11:14:36;;;;;;;6.33;2.83;;;-0.50;93.70;;;;;;5110462;28;20715;-52
2023/12/03 11:17:11;;;;;;;5.75;2.50;;;-0.50;92.70;;;;;;5111427;28;20750;-49
2023/12/03 11:19:42;;;;;;;5.13;2.40;;;-0.40;77.10;;;;;;5112156;28;20862;-51
2023/12/03 11:22:21;;;;;;;4.60;2.58;;;-0.30;1.00;;;;;;5112971;28;20435;-51
2023/12/03 11:24:56;;;;;;;4.90;1.90;;;-0.30;99.90;;;;;;5113642;28;20455;-48
2023/12/03 11:27:28;;;;;;;3.95;1.70;;;-0.30;88.50;;;;;;5112269;28;20431;-49
2023/12/03 11:29:56;;;;;;;5.10;2.30;;;-0.30;99.90;;;;;;5111881;28;20481;-50
2023/12/03 11:32:26;;;;;;;4.25;1.80;;;-0.30;99.90;;;;;;5109775;28;20427;-52
2023/12/03 11:34:59;;;;;;;4.20;2.07;;;-0.20;99.90;;;;;;5109541;28;20426;-49
2023/12/03 11:37:27;;;;;;;5.18;2.05;;;-0.30;1.00;;;;;;5110325;28;20412;-50
2023/12/03 11:39:56;;;;;;;4.80;2.10;;;-0.30;99.90;;;;;;5112387;28;20447;-53
2023/12/03 11:42:25;;;;;;;5.10;2.00;;;-0.20;99.90;;;;;;5112181;28;20420;-54
2023/12/03 11:45:19;;;;;;;6.03;2.20;;;-0.20;99.90;;;;;;5112647;28;20434;-54
2023/12/03 11:48:04;;;;;;;4.40;2.40;;;-0.10;1.00;;;;;;5112623;28;20419;-50
2023/12/03 11:50:32;;;;;;;6.05;2.45;;;0.10;1.00;;;;;;5111330;28;20420;-53
2023/12/03 11:52:59;;;;;;;3.55;1.90;;;0.20;1.00;;;;;;5111686;28;20499;-49
2023/12/03 11:55:27;;;;;;;5.85;2.00;;;0.20;1.00;;;;;;5113103;28;20409;-54
2023/12/03 11:57:56;;;;;;;4.15;2.00;;;0.10;1.00;;;;;;5113584;28;20719;-54
2023/12/03 12:00:25;;;;;;;3.17;1.73;;;0.10;1.00;;;;;;5112317;28;20450;-53
2023/12/03 12:02:53;;;;;;;4.43;2.10;;;0.10;99.90;;;;;;5111416;28;20773;-54
2023/12/03 12:05:20;;;;;;;5.25;2.08;;;0.20;99.90;;;;;;5112192;28;20550;-53
2023/12/03 12:07:57;;;;;;;4.90;2.60;;;0.20;99.90;;;;;;5111573;28;20406;-55
2023/12/03 12:10:25;;;;;;;3.15;1.95;;;0.20;99.90;;;;;;5110677;28;20428;-53
2023/12/03 12:12:52;;;;;;;5.65;1.63;;;0.10;1.00;;;;;;5110955;28;20424;-53
2023/12/03 12:15:19;;;;;;;6.05;1.98;;;0.10;1.00;;;;;;5109962;28;20420;-54
2023/12/03 12:17:48;;;;;;;5.18;2.20;;;0.10;1.00;;;;;;5111045;28;20427;-55
2023/12/03 12:20:23;;;;;;;4.63;1.90;;;0.20;1.00;;;;;;5110667;28;20412;-50
2023/12/03 12:22:51;;;;;;;4.60;2.00;;;0.40;1.00;;;;;;5111725;28;20778;-50
2023/12/03 12:25:18;;;;;;;3.90;1.90;;;0.50;99.90;;;;;;5109524;28;20465;-51
2023/12/03 12:27:45;;;;;;;4.32;2.05;;;0.50;13.00;;;;;;5111143;28;20712;-48
2023/12/03 12:30:15;;;;;;;3.73;1.80;;;0.40;1.00;;;;;;5111076;28;20477;-50
2023/12/03 12:32:42;;;;;;;3.45;1.55;;;0.40;1.00;;;;;;5111352;28;20442;-51
2023/12/03 12:35:11;;;;;;;4.53;1.50;;;0.30;17.60;;;;;;5111448;28;20725;-54
2023/12/03 12:37:38;;;;;;;4.82;1.90;;;0.30;99.90;;;;;;5112383;28;20415;-50
2023/12/03 12:40:10;;;;;;;5.13;2.00;;;0.30;99.90;;;;;;5112359;28;20418;-53
2023/12/03 12:42:40;;;;;;;3.65;1.80;;;0.30;92.30;;;;;;5112836;28;20420;-51
2023/12/03 12:45:26;;;;;;;3.20;1.60;;;0.40;99.90;;;;;;5111880;28;20695;-50
2023/12/03 12:47:53;;;;;;;5.82;2.47;;;0.50;1.00;;;;;;5112306;28;20447;-50
2023/12/03 12:50:32;;;;;;;4.93;2.47;;;0.60;99.90;;;;;;5110959;28;20735;-49
2023/12/03 12:53:00;;;;;;;3.60;1.52;;;0.60;99.90;;;;;;5111760;28;20424;-51
2023/12/03 12:55:28;;;;;;;5.07;1.90;;;0.60;1.00;;;;;;5111263;28;20423;-50